Time;durP1;ratioP1;P1;durP2;ratioP2;P2;SDS_P1;SDS_P2;PMS_P1;PMS_P2;Temp;Humidity;BMP_temperature;BMP_pressure;BME280_temperature;BME280_humidity;BME280_pressure;Samples;Min_cycle;Max_cycle;Signal;HPM_P1;HPM_P2
2024/01/06 00:00:00;;;;;;;13.90;8.10;;;10.20;99.90;;;10.41;91.40;100327.03;5013152;28;20073;-84
2024/01/06 00:02:39;;;;;;;9.38;7.70;;;10.20;99.90;;;10.46;91.59;100325.19;5015961;28;20058;-82
2024/01/06 00:05:08;;;;;;;13.82;7.72;;;10.20;99.90;;;10.39;91.56;100328.81;5015989;28;20088;-81
2024/01/06 00:07:37;;;;;;;10.52;7.60;;;10.20;99.90;;;10.39;91.85;100340.28;5015893;28;20136;-81
2024/01/06 00:10:07;;;;;;;10.77;7.13;;;10.20;99.90;;;10.23;91.56;100340.44;5015913;28;20065;-81
2024/01/06 00:12:36;;;;;;;;;;;10.10;99.90;;;10.23;91.29;100335.16;5016637;28;20046;-81
2024/01/06 00:15:07;;;;;;;8.93;6.80;;;10.10;99.90;;;10.26;90.70;100351.84;5015677;28;20284;-79
2024/01/06 00:17:35;;;;;;;9.32;7.20;;;10.10;99.90;;;10.23;90.08;100351.91;5015754;28;20045;-79
2024/01/06 00:20:04;;;;;;;10.93;7.72;;;10.10;99.90;;;10.09;90.34;100355.53;5014673;28;20046;-78
2024/01/06 00:22:33;;;;;;;14.68;7.60;;;10.00;99.90;;;10.18;90.89;100348.41;5013753;28;20056;-81
2024/01/06 00:25:03;;;;;;;11.88;7.85;;;10.00;99.90;;;9.68;91.26;100263.53;5014434;28;20046;-79
2024/01/06 00:27:31;;;;;;;8.27;7.37;;;9.90;99.90;;;9.43;90.62;100228.59;5013683;28;20096;-78
2024/01/06 00:30:00;;;;;;;10.05;7.38;;;10.00;99.90;;;10.20;90.55;100356.34;5013572;28;20823;-80
2024/01/06 00:32:29;;;;;;;11.45;7.70;;;10.00;99.90;;;10.21;90.09;100360.72;5013492;28;20065;-81
2024/01/06 00:34:57;;;;;;;9.70;7.35;;;10.00;99.90;;;10.23;90.87;100361.59;5013475;28;20115;-79
2024/01/06 00:37:26;;;;;;;10.65;7.63;;;10.00;99.90;;;10.09;90.28;100359.06;5013423;28;20054;-80
2024/01/06 00:39:54;;;;;;;9.95;7.63;;;9.90;99.90;;;10.12;90.85;100355.56;5013438;28;20038;-81
2024/01/06 00:42:24;;;;;;;10.80;7.82;;;9.90;99.90;;;10.14;90.39;100365.22;5013659;28;20100;-77
2024/01/06 00:44:52;;;;;;;11.80;7.55;;;9.90;99.90;;;10.16;90.15;100360.81;5013568;28;20074;-79
2024/01/06 00:47:23;;;;;;;12.18;8.00;;;10.00;99.90;;;10.17;89.80;100364.31;5013230;28;20065;-80
2024/01/06 00:49:52;;;;;;;11.07;7.22;;;10.00;99.90;;;10.19;89.97;100359.88;5013235;28;20467;-81
2024/01/06 00:52:20;;;;;;;9.57;7.13;;;10.00;99.90;;;10.21;89.84;100364.25;5013581;28;20050;-81
2024/01/06 00:54:48;;;;;;;11.70;7.75;;;10.00;99.90;;;10.14;90.04;100365.22;5013207;28;20083;-80
2024/01/06 00:57:17;;;;;;;9.95;7.90;;;10.00;99.90;;;10.16;90.29;100370.50;5012919;28;20042;-81
2024/01/06 00:59:47;;;;;;;11.98;7.95;;;9.90;99.90;;;10.18;89.86;100376.63;5013028;28;20057;-80
2024/01/06 01:02:15;;;;;;;12.20;7.47;;;10.00;99.90;;;10.13;90.29;100383.72;5012989;28;20499;-81
2024/01/06 01:04:43;;;;;;;12.02;8.02;;;10.00;99.90;;;10.06;89.95;100384.66;5012986;28;20061;-76
2024/01/06 01:07:13;;;;;;;11.98;7.78;;;9.90;99.90;;;10.13;90.09;100386.38;5012864;28;20050;-82
2024/01/06 01:09:41;;;;;;;9.77;8.13;;;9.90;99.90;;;10.05;90.08;100389.06;5012932;28;20108;-81
2024/01/06 01:12:10;;;;;;;12.98;8.52;;;9.90;99.90;;;10.11;90.37;100396.97;5012304;28;20096;-81
2024/01/06 01:14:38;;;;;;;9.77;7.63;;;9.90;99.90;;;10.05;90.39;100394.34;5012859;28;20046;-81
2024/01/06 01:17:08;;;;;;;13.68;8.30;;;9.90;99.90;;;9.94;90.41;100402.38;5012555;28;20096;-79
2024/01/06 01:19:36;;;;;;;12.23;8.52;;;9.80;99.90;;;10.05;90.72;100404.91;5012751;28;20156;-79
2024/01/06 01:22:05;;;;;;;10.50;8.65;;;9.80;99.90;;;10.00;90.85;100407.63;5012606;28;20048;-79
2024/01/06 01:24:33;;;;;;;12.45;8.75;;;9.80;99.90;;;10.06;90.22;100405.78;5012639;28;20092;-81
2024/01/06 01:27:02;;;;;;;16.77;8.82;;;9.90;99.90;;;10.08;90.16;100414.56;5012494;28;20054;-80
2024/01/06 01:29:30;;;;;;;13.32;8.35;;;9.90;99.90;;;10.03;90.25;100415.50;5013004;28;20069;-78
2024/01/06 01:31:58;;;;;;;11.10;7.32;;;9.90;99.90;;;10.00;90.52;100420.81;5012393;28;20092;-79
2024/01/06 01:34:28;;;;;;;9.85;6.63;;;9.80;99.90;;;9.98;90.22;100429.66;5012448;28;20042;-81
2024/01/06 01:36:57;;;;;;;10.35;6.57;;;9.80;99.90;;;9.89;89.96;100421.81;5012468;28;20125;-81
2024/01/06 01:39:25;;;;;;;7.15;5.43;;;9.80;99.90;;;9.94;89.19;100442.00;5012333;28;20100;-81
2024/01/06 01:41:53;;;;;;;12.00;5.88;;;9.80;99.90;;;9.77;89.31;100443.03;5012216;28;20038;-79
2024/01/06 01:44:22;;;;;;;6.93;5.45;;;9.60;99.90;;;9.79;89.70;100438.63;4994268;28;20057;-81
2024/01/06 01:46:50;;;;;;;5.18;4.57;;;9.60;99.90;;;9.78;88.81;100453.59;5011820;28;20061;-81
2024/01/06 01:49:19;;;;;;;6.20;4.10;;;9.60;99.90;;;9.65;88.82;100448.41;5011623;28;20041;-81
2024/01/06 01:51:50;;;;;;;9.90;4.35;;;9.50;99.90;;;9.70;88.32;100460.69;5011694;28;20038;-78
2024/01/06 01:54:18;;;;;;;9.27;4.72;;;9.50;99.90;;;9.66;88.03;100484.47;5011509;28;20117;-78
2024/01/06 01:56:47;;;;;;;6.80;4.35;;;9.50;99.90;;;9.72;88.25;100458.03;5011431;28;20049;-81
2024/01/06 01:59:19;;;;;;;5.75;4.13;;;9.50;99.90;;;9.51;87.96;100474.91;5011377;28;20045;-80
2024/01/06 02:01:47;;;;;;;6.43;4.43;;;9.40;99.90;;;9.47;87.78;100469.66;5011319;28;20050;-76
2024/01/06 02:04:16;;;;;;;5.95;4.18;;;9.40;99.90;;;9.44;87.25;100467.03;5011569;28;20143;-81
2024/01/06 02:06:44;;;;;;;4.85;3.80;;;9.30;99.90;;;9.32;87.35;100436.31;5011219;28;20495;-78
2024/01/06 02:09:14;;;;;;;5.57;3.70;;;9.30;99.90;;;9.47;86.59;100472.28;5011264;28;20070;-79
2024/01/06 02:11:43;;;;;;;8.55;4.70;;;9.30;99.90;;;9.37;85.93;100466.19;5011658;28;20065;-79
2024/01/06 02:14:11;;;;;;;6.80;4.72;;;9.30;99.90;;;9.41;85.73;100475.84;5011151;28;20073;-82
2024/01/06 02:16:39;;;;;;;7.78;4.55;;;9.30;99.90;;;9.44;85.61;100475.84;4993655;28;20146;-80
2024/01/06 02:19:12;;;;;;;7.22;4.13;;;9.30;99.90;;;9.37;86.08;100471.47;5011060;28;20070;-81
2024/01/06 02:21:43;;;;;;;6.05;4.40;;;9.30;99.90;;;9.40;86.60;100487.31;5011085;28;20041;-79
2024/01/06 02:24:13;;;;;;;6.30;4.93;;;9.30;99.90;;;9.32;86.31;100494.38;5010116;28;20099;-80
2024/01/06 02:26:41;;;;;;;8.23;4.40;;;9.20;99.90;;;9.28;86.14;100491.75;5010815;28;20050;-80
2024/01/06 02:29:10;;;;;;;5.00;4.50;;;9.20;99.90;;;9.32;86.22;100493.50;5010815;28;20404;-81
2024/01/06 02:31:38;;;;;;;7.00;4.15;;;9.20;99.90;;;9.35;85.82;100499.63;5010734;28;20049;-80
2024/01/06 02:34:07;;;;;;;5.13;4.13;;;9.30;99.90;;;9.28;85.66;100494.41;5010683;28;20513;-81
2024/01/06 02:36:35;;;;;;;7.57;4.68;;;9.20;99.90;;;9.23;85.57;100493.56;4992973;28;20046;-81
2024/01/06 02:39:04;;;;;;;4.90;4.50;;;9.10;99.90;;;9.23;86.00;100504.13;4993087;28;20053;-80
2024/01/06 02:41:34;;;;;;;8.00;4.45;;;9.10;99.90;;;9.19;86.39;100508.53;5011173;28;20069;-76
2024/01/06 02:44:03;;;;;;;10.37;5.10;;;9.00;99.90;;;9.21;87.30;100516.44;5010697;28;20428;-82
2024/01/06 02:46:31;;;;;;;8.27;5.03;;;9.00;99.90;;;9.17;87.04;100514.69;5010615;28;20612;-80
2024/01/06 02:49:00;;;;;;;6.75;5.22;;;9.00;99.90;;;9.19;86.87;100524.38;5010741;28;20037;-81
2024/01/06 02:51:28;;;;;;;6.45;5.10;;;9.00;99.90;;;9.18;87.20;100530.50;4992790;28;20046;-81
2024/01/06 02:53:57;;;;;;;15.05;5.85;;;9.00;99.90;;;9.15;87.62;100527.00;5010468;28;20049;-82
2024/01/06 02:56:27;;;;;;;9.50;5.65;;;9.00;99.90;;;9.15;87.78;100527.00;5010879;28;20050;-80
2024/01/06 02:58:57;;;;;;;6.30;5.70;;;9.00;99.90;;;9.13;87.86;100532.31;5010633;28;20053;-79
2024/01/06 03:01:25;;;;;;;7.63;6.10;;;9.00;99.90;;;9.13;87.90;100536.69;5011154;28;20053;-81
2024/01/06 03:03:52;;;;;;;13.75;5.60;;;9.00;99.90;;;9.16;88.81;100532.28;5011118;28;20664;-80
2024/01/06 03:06:21;;;;;;;9.40;5.90;;;9.00;99.90;;;9.26;88.12;100536.63;5010762;28;20049;-79
2024/01/06 03:08:49;;;;;;;7.97;5.80;;;9.10;99.90;;;9.25;87.55;100537.53;5010696;28;20376;-81
2024/01/06 03:11:18;;;;;;;8.65;6.30;;;9.10;99.90;;;9.27;87.88;100538.38;5010524;28;20103;-81
2024/01/06 03:13:46;;;;;;;8.65;6.43;;;9.10;99.90;;;9.20;88.08;100523.47;5010807;28;20045;-80
2024/01/06 03:16:16;;;;;;;9.40;6.57;;;9.10;99.90;;;9.32;88.45;100549.81;5010417;28;20555;-81
2024/01/06 03:18:46;;;;;;;9.25;6.05;;;9.10;99.90;;;9.36;88.11;100546.28;5010394;28;20096;-81
2024/01/06 03:21:18;;;;;;;8.25;6.50;;;9.20;99.90;;;9.40;88.32;100550.66;5010791;28;20048;-80
2024/01/06 03:23:47;;;;;;;9.27;6.30;;;9.20;99.90;;;9.22;88.11;100545.44;4993681;28;20073;-78
2024/01/06 03:26:17;;;;;;;10.23;6.78;;;9.10;99.90;;;9.34;88.64;100558.59;5011213;28;20062;-81
2024/01/06 03:28:46;;;;;;;10.00;6.78;;;9.10;99.90;;;9.29;87.87;100555.06;4994159;28;20081;-81
2024/01/06 03:31:15;;;;;;;8.43;6.68;;;9.10;99.90;;;9.36;87.50;100551.56;5011386;28;20517;-79
2024/01/06 03:33:45;;;;;;;9.70;6.45;;;9.20;99.90;;;9.25;87.54;100560.41;4994279;28;20049;-80
2024/01/06 03:36:15;;;;;;;10.83;7.07;;;9.10;99.90;;;9.01;87.99;100509.50;5014300;28;20403;-81
2024/01/06 03:38:44;;;;;;;10.55;6.30;;;9.10;99.90;;;9.23;87.97;100565.69;5015998;28;20117;-81
2024/01/06 03:41:12;;;;;;;11.07;6.70;;;9.00;99.90;;;9.36;88.03;100567.38;5015265;28;20049;-80
2024/01/06 03:43:41;;;;;;;11.48;7.80;;;9.20;99.90;;;9.42;87.60;100570.00;5014915;28;20483;-81
2024/01/06 03:46:09;;;;;;;11.85;8.10;;;9.20;99.90;;;9.34;88.03;100576.19;5015717;28;20050;-80
2024/01/06 03:48:39;;;;;;;12.18;7.50;;;9.20;99.90;;;9.29;87.75;100581.47;5015295;28;20050;-81
2024/01/06 03:51:08;;;;;;;9.50;7.32;;;9.10;99.90;;;9.34;88.17;100587.63;5015143;28;20096;-82
2024/01/06 03:53:37;;;;;;;13.43;7.65;;;9.20;99.90;;;9.35;87.75;100573.53;5016204;28;20068;-80
2024/01/06 03:56:06;;;;;;;8.52;6.63;;;9.20;99.90;;;9.23;87.07;100586.78;4998199;28;20562;-80
2024/01/06 03:58:34;;;;;;;11.55;7.03;;;9.10;99.90;;;9.23;87.37;100584.16;5015674;28;20112;-79
2024/01/06 04:01:03;;;;;;;8.82;6.93;;;9.10;99.90;;;9.04;87.15;100588.59;5015554;28;20103;-80
2024/01/06 04:03:32;;;;;;;9.95;6.93;;;9.10;99.90;;;9.18;86.87;100588.56;5015250;28;20372;-81
2024/01/06 04:06:02;;;;;;;9.95;7.28;;;9.10;99.90;;;9.22;88.08;100603.50;5015108;28;20046;-79
2024/01/06 04:08:30;;;;;;;8.65;7.25;;;9.10;99.90;;;9.23;88.31;100600.00;4997520;28;20153;-76
2024/01/06 04:10:59;;;;;;;8.15;6.55;;;9.10;99.90;;;9.22;88.22;100603.50;5014775;28;20475;-81
2024/01/06 04:13:27;;;;;;;9.48;6.65;;;9.10;99.90;;;8.99;88.12;100608.84;5014840;28;20407;-80
2024/01/06 04:15:56;;;;;;;10.05;6.88;;;8.90;99.90;;;9.00;88.00;100628.19;5013787;28;20054;-81
2024/01/06 04:18:24;;;;;;;7.53;6.68;;;8.90;99.90;;;9.07;88.61;100620.25;5013962;28;20037;-79
2024/01/06 04:20:53;;;;;;;7.57;6.80;;;8.90;99.90;;;9.05;88.76;100623.78;5014380;28;20096;-81
2024/01/06 04:23:23;;;;;;;9.50;6.90;;;8.90;99.90;;;9.03;88.39;100626.44;5013776;28;20080;-78
2024/01/06 04:25:53;;;;;;;10.82;6.93;;;8.90;99.90;;;8.99;88.42;100626.44;5013899;28;20124;-78
2024/01/06 04:28:22;;;;;;;12.65;7.05;;;8.90;99.90;;;8.98;88.58;100625.53;4995842;28;20377;-81
2024/01/06 04:30:52;;;;;;;12.85;6.60;;;8.90;99.90;;;8.96;88.42;100634.34;5013571;28;20049;-80
2024/01/06 04:33:20;;;;;;;8.13;7.03;;;8.90;99.90;;;8.95;88.66;100629.94;5013431;28;20061;-80
2024/01/06 04:35:50;;;;;;;9.50;6.70;;;8.80;99.90;;;8.98;89.29;100635.22;5013372;28;20042;-79
2024/01/06 04:38:18;;;;;;;10.02;7.05;;;8.90;99.90;;;8.99;89.38;100636.97;5013203;28;20073;-78
2024/01/06 04:40:48;;;;;;;10.57;6.78;;;8.80;99.90;;;8.97;89.66;100633.47;5013229;28;20064;-79
2024/01/06 04:43:16;;;;;;;8.88;6.70;;;8.90;99.90;;;8.90;89.80;100632.59;4995666;28;20153;-81
2024/01/06 04:45:45;;;;;;;9.68;6.68;;;8.80;99.90;;;9.00;89.46;100638.75;5012892;28;20100;-81
2024/01/06 04:48:13;;;;;;;8.70;6.97;;;8.80;99.90;;;8.95;89.01;100636.09;5011950;28;20049;-80
2024/01/06 04:50:42;;;;;;;7.45;6.10;;;8.80;99.90;;;8.83;88.76;100645.78;5013142;28;20441;-79
2024/01/06 04:53:11;;;;;;;10.30;6.60;;;8.70;99.90;;;8.90;89.59;100653.69;5013592;28;20041;-80
2024/01/06 04:55:39;;;;;;;9.77;6.53;;;8.70;99.90;;;8.94;89.72;100652.81;5013947;28;20503;-80
2024/01/06 04:58:09;;;;;;;9.43;6.38;;;8.80;99.90;;;8.94;89.47;100649.31;4995680;28;20050;-79
2024/01/06 05:00:37;;;;;;;9.47;6.77;;;8.80;99.90;;;8.77;89.16;100645.78;5013501;28;20045;-77
2024/01/06 05:03:06;;;;;;;7.38;6.53;;;8.80;99.90;;;8.92;88.99;100657.19;4995391;28;20069;-80
2024/01/06 05:05:34;;;;;;;6.90;6.22;;;8.80;99.90;;;8.89;89.26;100662.50;5013731;28;20034;-78
2024/01/06 05:08:03;;;;;;;8.93;5.88;;;8.80;99.90;;;8.91;89.09;100660.72;5013726;28;20050;-80
2024/01/06 05:10:31;;;;;;;7.53;6.07;;;8.80;99.90;;;8.95;88.93;100666.88;5013410;28;20137;-79
2024/01/06 05:13:00;;;;;;;7.53;6.05;;;8.80;99.90;;;8.95;88.69;100674.78;5013126;28;20042;-80
2024/01/06 05:15:29;;;;;;;7.47;5.60;;;8.80;99.90;;;8.91;89.17;100667.75;5012738;28;20120;-76
2024/01/06 05:17:58;;;;;;;6.43;5.75;;;8.70;99.90;;;8.93;89.18;100677.44;5013402;28;20046;-80
2024/01/06 05:20:26;;;;;;;8.73;6.00;;;8.80;99.90;;;8.83;88.95;100691.50;4995728;28;20054;-78
2024/01/06 05:22:54;;;;;;;6.43;5.45;;;8.70;99.90;;;8.81;88.66;100680.06;5012184;28;20048;-80
2024/01/06 05:25:23;;;;;;;6.38;5.75;;;8.70;99.90;;;8.81;89.10;100685.34;5012195;28;20046;-79
2024/01/06 05:27:51;;;;;;;6.20;5.47;;;8.60;99.90;;;8.84;89.00;100679.19;5012042;28;20111;-79
2024/01/06 05:30:20;;;;;;;8.45;6.03;;;8.70;99.90;;;8.81;89.31;100690.63;5011928;28;20148;-80
2024/01/06 05:32:50;;;;;;;9.25;6.10;;;8.70;99.90;;;8.79;89.13;100692.38;5011909;28;20468;-79
2024/01/06 05:35:18;;;;;;;9.75;6.22;;;8.60;99.90;;;8.72;89.57;100702.94;5011933;28;20042;-78
2024/01/06 05:37:47;;;;;;;11.13;6.60;;;8.60;99.90;;;8.59;89.51;100690.63;5011790;28;20473;-80
2024/01/06 05:40:16;;;;;;;7.03;6.22;;;8.50;99.90;;;8.68;89.61;100693.25;5012431;28;20042;-81
2024/01/06 05:42:44;;;;;;;6.65;5.88;;;8.50;99.90;;;8.73;89.92;100704.72;5012034;28;20056;-79
2024/01/06 05:45:13;;;;;;;6.60;5.70;;;8.50;99.90;;;7.99;90.09;100573.72;5012132;28;20056;-80
2024/01/06 05:47:42;;;;;;;7.80;5.75;;;8.50;99.90;;;8.70;89.37;100699.41;5012138;28;20487;-81
2024/01/06 05:50:12;;;;;;;7.90;6.32;;;8.60;99.90;;;8.67;89.95;100709.97;5012506;28;20042;-79
2024/01/06 05:52:40;;;;;;;10.82;6.28;;;8.50;99.90;;;8.69;89.94;100711.69;5012116;28;20491;-80
2024/01/06 05:55:10;;;;;;;8.35;5.88;;;8.60;99.90;;;8.70;89.55;100713.47;5011900;28;20431;-78
2024/01/06 05:57:38;;;;;;;6.25;5.70;;;8.60;99.90;;;8.72;89.66;100726.66;4994095;28;20061;-78
2024/01/06 06:00:11;;;;;;;7.95;6.50;;;8.60;99.90;;;8.65;90.15;100727.53;5011587;28;20050;-80
2024/01/06 06:02:40;;;;;;;7.95;6.30;;;8.50;99.90;;;8.74;90.35;100728.44;5011964;28;20049;-78
2024/01/06 06:05:10;;;;;;;7.15;6.32;;;8.60;99.90;;;8.62;90.58;100727.53;5012074;28;20812;-80
2024/01/06 06:07:39;;;;;;;7.43;6.15;;;8.50;99.90;;;8.47;90.40;100709.06;5011677;28;20069;-78
2024/01/06 06:10:10;;;;;;;7.05;5.80;;;8.50;99.90;;;8.63;90.46;100742.47;4994432;28;20046;-79
2024/01/06 06:12:39;;;;;;;;;;;8.50;99.90;;;8.65;89.85;100762.66;5012091;28;20096;-80
2024/01/06 06:15:09;;;;;;;6.97;5.30;;;8.50;99.90;;;8.61;89.31;100747.75;4993860;28;19928;-80
2024/01/06 06:17:37;;;;;;;8.48;5.82;;;8.50;99.90;;;8.55;89.52;100752.13;5011616;28;20057;-78
2024/01/06 06:20:07;;;;;;;5.40;4.90;;;8.40;99.90;;;8.57;89.28;100758.28;4993764;28;20046;-81
2024/01/06 06:22:37;;;;;;;6.25;5.30;;;8.40;99.90;;;8.56;89.15;100772.31;5011313;28;20061;-79
2024/01/06 06:25:08;;;;;;;8.05;5.60;;;8.40;99.90;;;8.52;88.60;100766.16;5011411;28;20112;-80
2024/01/06 06:27:36;;;;;;;6.70;5.65;;;8.40;99.90;;;8.45;88.90;100774.94;5011779;28;20140;-77
2024/01/06 06:30:06;;;;;;;7.68;5.90;;;8.30;99.90;;;8.19;89.58;100772.19;4993972;28;20050;-80
2024/01/06 06:32:35;;;;;;;6.97;6.18;;;8.20;99.90;;;8.23;89.53;100787.13;4994143;28;20519;-77
2024/01/06 06:35:04;;;;;;;7.18;5.90;;;8.10;99.90;;;8.26;89.79;100783.69;5010988;28;20132;-80
2024/01/06 06:37:33;;;;;;;6.47;5.97;;;8.20;99.90;;;8.36;89.71;100796.00;5011052;28;20042;-80
2024/01/06 06:40:02;;;;;;;9.25;5.53;;;8.20;99.90;;;8.35;89.71;100786.34;5010882;28;20100;-79
2024/01/06 06:42:31;;;;;;;6.80;5.97;;;8.20;99.90;;;8.34;90.15;100786.34;4993405;28;20057;-78
2024/01/06 06:44:59;;;;;;;6.50;5.65;;;8.30;99.90;;;8.38;89.54;100782.84;5010896;28;20160;-80
2024/01/06 06:47:28;;;;;;;6.57;5.85;;;8.30;99.90;;;8.45;89.73;100796.03;5010658;28;20060;-78
2024/01/06 06:49:56;;;;;;;7.85;5.90;;;8.30;99.90;;;8.30;89.76;100800.38;5010580;28;20042;-80
2024/01/06 06:52:24;;;;;;;7.55;5.60;;;8.20;99.90;;;8.33;89.69;100803.00;5010536;28;20100;-80
2024/01/06 06:54:53;;;;;;;7.07;5.85;;;8.20;99.90;;;8.30;89.25;100801.25;5010663;28;20058;-81
2024/01/06 06:57:23;;;;;;;8.90;5.82;;;8.20;99.90;;;8.29;89.52;100807.38;5010527;28;20056;-81
2024/01/06 06:59:52;;;;;;;9.07;6.05;;;8.20;99.90;;;8.34;89.36;100808.31;5010671;28;20042;-80
2024/01/06 07:02:20;;;;;;;9.57;6.18;;;8.20;99.90;;;8.24;89.27;100806.47;5010738;28;20100;-80
2024/01/06 07:04:49;;;;;;;6.13;5.50;;;8.10;99.90;;;8.28;89.01;100823.19;5010592;28;20080;-80
2024/01/06 07:07:17;;;;;;;7.65;5.85;;;8.10;99.90;;;8.28;88.98;100831.09;5010484;28;20045;-80
2024/01/06 07:09:45;;;;;;;9.23;6.25;;;8.20;99.90;;;8.34;89.01;100833.78;5010292;28;20050;-82
2024/01/06 07:12:14;;;;;;;7.05;6.15;;;8.20;99.90;;;8.39;88.57;100834.66;5010261;28;20212;-79
2024/01/06 07:14:44;;;;;;;7.38;6.32;;;8.20;99.90;;;8.43;88.99;100846.97;4992794;28;20395;-80
2024/01/06 07:17:12;;;;;;;6.85;6.15;;;8.30;99.90;;;8.41;88.43;100848.72;5010392;28;20100;-81
2024/01/06 07:19:40;;;;;;;6.53;5.97;;;8.30;99.90;;;8.16;88.48;100816.09;5010289;28;20046;-81
2024/01/06 07:22:09;;;;;;;7.75;5.90;;;8.20;99.90;;;8.33;88.40;100853.06;5010282;28;20050;-79
2024/01/06 07:24:37;;;;;;;9.98;6.55;;;8.30;99.90;;;8.39;87.90;100854.00;5010183;28;20046;-81
2024/01/06 07:27:06;;;;;;;10.13;7.28;;;8.30;99.90;;;8.40;87.81;100860.16;5010444;28;20073;-79
2024/01/06 07:29:34;;;;;;;10.75;6.63;;;8.30;99.90;;;8.33;87.51;100868.88;5011245;28;20046;-80
2024/01/06 07:32:06;;;;;;;7.00;6.03;;;8.20;99.90;;;8.34;86.97;100865.38;5011609;28;20050;-81
2024/01/06 07:34:34;;;;;;;7.45;6.75;;;8.30;99.90;;;8.23;87.63;100877.59;5011267;28;20045;-79
2024/01/06 07:37:03;;;;;;;7.05;6.30;;;8.10;99.90;;;8.12;87.29;100875.78;5011180;28;20046;-82
2024/01/06 07:39:32;;;;;;;7.25;6.55;;;8.00;99.90;;;8.23;87.75;100881.09;5010174;28;20165;-78
2024/01/06 07:42:00;;;;;;;10.40;6.80;;;8.10;99.90;;;8.25;87.82;100886.41;5009878;28;20149;-75
2024/01/06 07:44:28;;;;;;;10.32;7.00;;;8.10;99.90;;;8.26;87.81;100883.81;4992439;28;20510;-76
2024/01/06 07:46:57;;;;;;;9.88;6.85;;;8.10;99.90;;;8.30;88.02;100890.84;5010302;28;20125;-79
2024/01/06 07:49:26;;;;;;;8.02;7.15;;;8.20;99.90;;;8.33;87.62;100892.59;5010028;28;20054;-76
2024/01/06 07:51:55;;;;;;;7.82;6.63;;;8.20;99.90;;;8.36;87.78;100890.88;5009782;28;20123;-78
2024/01/06 07:54:24;;;;;;;8.52;6.65;;;8.30;99.90;;;8.45;87.16;100905.84;4992203;28;20531;-77
2024/01/06 07:56:52;;;;;;;7.63;6.43;;;8.30;99.90;;;8.44;86.80;100912.00;5009855;28;20050;-79
2024/01/06 07:59:21;;;;;;;7.13;6.40;;;8.30;99.90;;;8.37;86.74;100912.81;5009906;28;20088;-76
2024/01/06 08:01:50;;;;;;;7.95;6.35;;;8.20;99.90;;;8.45;86.08;100927.81;5009784;28;20046;-76
2024/01/06 08:04:19;;;;;;;7.32;6.60;;;8.30;99.90;;;8.32;85.92;100925.09;5009987;28;20058;-73
2024/01/06 08:06:49;;;;;;;11.52;6.63;;;8.20;99.90;;;8.18;85.84;100933.78;5009901;28;20503;-74
2024/01/06 08:09:19;;;;;;;7.88;6.57;;;8.20;99.90;;;8.20;86.10;100934.69;5009730;28;20057;-75
2024/01/06 08:11:48;;;;;;;8.82;6.20;;;8.10;99.90;;;8.23;86.63;100948.75;4992518;28;20042;-76
2024/01/06 08:14:17;;;;;;;6.85;6.25;;;8.10;99.90;;;8.24;86.08;100948.75;5010206;28;20045;-74
2024/01/06 08:16:46;;;;;;;9.60;6.60;;;8.10;99.90;;;8.04;86.44;100930.19;5010144;28;20058;-70
2024/01/06 08:19:14;;;;;;;8.88;6.97;;;8.10;99.90;;;8.23;86.38;100961.03;4992276;28;20380;-74
2024/01/06 08:21:43;;;;;;;7.75;6.88;;;8.10;99.90;;;8.23;86.62;100955.75;5010120;28;20505;-77
2024/01/06 08:24:13;;;;;;;9.60;6.90;;;8.10;99.90;;;8.23;86.03;100958.41;5013557;28;20132;-75
2024/01/06 08:26:42;;;;;;;8.63;7.30;;;8.10;99.90;;;8.25;86.04;100970.72;5013297;28;20052;-78
2024/01/06 08:29:10;;;;;;;7.13;6.35;;;8.10;99.90;;;8.26;85.97;100968.13;5013315;28;20125;-81
2024/01/06 08:31:39;;;;;;;10.85;7.15;;;8.10;99.90;;;8.23;85.72;100958.41;5013030;28;20054;-81
2024/01/06 08:34:07;;;;;;;9.25;6.90;;;8.20;99.90;;;8.18;85.65;100954.88;5013082;28;20148;-76
2024/01/06 08:36:36;;;;;;;8.13;6.93;;;8.20;99.90;;;8.27;85.95;100977.78;5012975;28;20406;-75
2024/01/06 08:39:05;;;;;;;8.23;7.35;;;8.20;99.90;;;8.28;86.03;100982.19;4995553;28;20084;-75
2024/01/06 08:41:35;;;;;;;7.72;6.93;;;8.10;99.90;;;8.34;85.45;100989.25;5012890;28;20052;-75
2024/01/06 08:44:04;;;;;;;16.23;6.80;;;8.20;99.90;;;8.32;85.02;100983.06;5012966;28;20038;-68
2024/01/06 08:46:32;;;;;;;8.48;7.47;;;8.30;99.90;;;8.40;85.01;100992.78;5012711;28;20068;-71
2024/01/06 08:49:01;;;;;;;8.80;6.78;;;8.30;99.90;;;8.42;85.03;100984.91;5012760;28;20046;-70
2024/01/06 08:51:30;;;;;;;7.20;6.40;;;8.30;99.90;;;8.51;85.68;100995.50;5012791;28;20070;-69
2024/01/06 08:53:59;;;;;;;10.13;6.95;;;8.40;99.90;;;8.45;85.12;100987.53;5012960;28;20052;-70
2024/01/06 08:56:27;;;;;;;8.52;6.38;;;8.30;99.90;;;8.46;84.16;100997.22;5013055;28;20549;-71
2024/01/06 08:58:58;;;;;;;9.02;6.40;;;8.40;99.90;;;8.45;84.37;100990.19;5012758;28;20053;-71
2024/01/06 09:01:26;;;;;;;9.45;7.05;;;8.30;99.90;;;7.83;84.21;100897.53;4995136;28;20058;-72
2024/01/06 09:03:54;;;;;;;10.13;6.88;;;8.30;99.90;;;7.70;84.02;100872.00;5012580;28;20467;-72
2024/01/06 09:06:23;;;;;;;8.10;6.30;;;8.30;99.90;;;8.50;83.95;101012.16;5012639;28;20104;-72
2024/01/06 09:08:52;;;;;;;8.98;6.32;;;8.30;99.90;;;8.46;83.59;101015.69;5012590;28;20169;-70
2024/01/06 09:11:20;;;;;;;8.27;6.40;;;8.30;99.90;;;8.51;83.70;101021.84;5012511;28;20058;-70
2024/01/06 09:13:48;;;;;;;10.13;6.93;;;8.30;99.90;;;8.50;84.19;101015.69;5012687;28;20119;-72
2024/01/06 09:16:18;;;;;;;9.15;7.07;;;8.40;99.90;;;8.40;84.20;101019.13;5012206;28;20085;-71
2024/01/06 09:18:47;;;;;;;11.27;6.57;;;8.30;99.90;;;8.42;84.13;101032.34;4994857;28;20144;-70
2024/01/06 09:21:17;;;;;;;8.35;6.38;;;8.30;99.90;;;8.29;83.82;101020.81;5012223;28;20254;-70
2024/01/06 09:23:45;;;;;;;7.53;6.43;;;8.20;99.90;;;8.38;84.13;101036.69;4994602;28;20152;-72
2024/01/06 09:26:16;;;;;;;7.40;6.00;;;8.20;99.90;;;8.37;84.37;101044.59;5012361;28;20069;-71
2024/01/06 09:28:44;;;;;;;9.48;6.35;;;8.20;99.90;;;8.43;84.28;101044.63;5012145;28;20120;-71
2024/01/06 09:31:13;;;;;;;8.18;6.57;;;8.30;99.90;;;8.42;84.04;101040.25;5011917;28;20050;-73
2024/01/06 09:33:44;;;;;;;19.90;7.38;;;8.30;99.90;;;8.39;84.19;101056.03;5011505;28;20043;-71
2024/01/06 09:36:14;;;;;;;7.20;6.20;;;8.30;99.90;;;8.40;84.42;101047.25;5012072;28;20093;-73
2024/01/06 09:38:43;;;;;;;9.02;6.05;;;8.30;99.90;;;8.42;84.25;101070.09;5011945;28;20154;-75
2024/01/06 09:41:12;;;;;;;10.32;6.30;;;8.30;99.90;;;8.55;84.19;101066.72;5011733;28;20061;-73
2024/01/06 09:43:41;;;;;;;7.22;6.25;;;8.40;99.90;;;8.51;84.12;101064.91;5011673;28;20069;-73
2024/01/06 09:46:16;;;;;;;10.13;6.32;;;8.40;99.90;;;8.50;84.36;101073.69;5011724;28;20426;-76
2024/01/06 09:48:48;;;;;;;8.02;6.18;;;8.30;99.90;;;8.54;84.31;101072.84;5011561;28;20042;-74
2024/01/06 09:51:17;;;;;;;8.90;5.80;;;8.40;99.90;;;8.55;84.59;101077.25;5011962;28;20144;-79
2024/01/06 09:54:02;;;;;;;9.73;6.68;;;8.40;99.90;;;8.69;84.22;101079.97;5012974;28;20062;-83
2024/01/06 09:56:31;;;;;;;7.45;6.32;;;8.50;99.90;;;8.84;83.97;101085.34;5014428;28;20053;-85
2024/01/06 09:59:00;;;;;;;6.82;5.90;;;8.60;99.90;;;8.94;84.68;101093.31;5015030;28;20053;-75
2024/01/06 10:01:28;;;;;;;11.40;6.20;;;8.70;99.90;;;9.00;84.08;101125.00;5012992;28;20407;-73
2024/01/06 10:03:58;;;;;;;7.15;5.80;;;8.80;99.90;;;9.12;83.51;101097.81;5013689;28;20042;-74
2024/01/06 10:06:27;;;;;;;9.10;6.30;;;8.90;99.90;;;8.99;82.15;101098.63;5014028;28;20038;-77
2024/01/06 10:08:55;;;;;;;5.90;5.30;;;8.80;99.90;;;9.01;81.63;101100.41;4996018;28;20480;-77
2024/01/06 10:11:24;;;;;;;6.25;5.47;;;8.90;99.90;;;9.02;82.10;101111.81;4996050;28;20375;-81
2024/01/06 10:13:53;;;;;;;7.07;5.72;;;8.90;99.90;;;9.02;81.87;101111.81;5014700;28;20448;-73
2024/01/06 10:16:23;;;;;;;8.60;5.68;;;8.90;99.90;;;8.76;81.81;101071.22;5012715;28;20407;-69
2024/01/06 10:18:52;;;;;;;9.10;5.07;;;8.80;99.90;;;8.98;80.32;101117.97;5012997;28;20356;-73
2024/01/06 10:21:23;;;;;;;7.10;5.25;;;8.80;99.90;;;8.97;80.72;101114.44;5013250;28;20037;-72
2024/01/06 10:23:52;;;;;;;6.72;5.50;;;8.90;99.90;;;8.95;80.35;101116.19;5013842;28;20415;-75
2024/01/06 10:26:21;;;;;;;6.97;5.30;;;8.80;99.90;;;8.70;80.47;101081.72;4995833;28;20555;-76
2024/01/06 10:28:51;;;;;;;6.00;5.10;;;8.80;99.90;;;8.84;80.38;101127.53;5012930;28;20100;-73